Time;durP1;ratioP1;P1;durP2;ratioP2;P2;SDS_P1;SDS_P2;PMS_P1;PMS_P2;Temp;Humidity;BMP_temperature;BMP_pressure;BME280_temperature;BME280_humidity;BME280_pressure;Samples;Min_cycle;Max_cycle;Signal;HPM_P1;HPM_P2
2023/12/04 00:04:46;;;;;;;4.82;2.65;;;15.00;62.70;;;;;;10324932;28;20054;-60
2023/12/04 00:09:47;;;;;;;4.60;2.90;;;15.00;62.70;;;;;;10324962;28;20089;-59
2023/12/04 00:14:48;;;;;;;3.42;2.60;;;15.00;62.80;;;;;;10334947;28;20026;-59
2023/12/04 00:19:48;;;;;;;5.03;2.70;;;15.00;62.80;;;;;;10363958;28;20482;-60
2023/12/04 00:24:49;;;;;;;3.95;2.08;;;15.00;62.80;;;;;;10365161;28;20037;-60
2023/12/04 00:29:50;;;;;;;4.53;2.72;;;14.90;62.70;;;;;;10372609;28;20037;-59
2023/12/04 00:34:51;;;;;;;3.53;2.30;;;14.90;62.70;;;;;;10365117;28;20037;-59
2023/12/04 00:39:51;;;;;;;3.58;2.67;;;14.90;62.80;;;;;;10364788;28;20247;-60
2023/12/04 00:44:52;;;;;;;4.28;2.90;;;14.90;62.90;;;;;;10364629;28;20064;-59
2023/12/04 00:49:53;;;;;;;3.58;2.55;;;14.90;62.90;;;;;;10364897;28;20397;-59
2023/12/04 00:54:54;;;;;;;3.95;2.38;;;14.90;62.90;;;;;;10364639;28;20057;-59
2023/12/04 00:59:54;;;;;;;5.13;3.08;;;14.80;62.90;;;;;;10363873;28;20050;-59
2023/12/04 01:04:55;;;;;;;3.25;1.92;;;14.80;62.90;;;;;;10364592;28;20496;-59
2023/12/04 01:09:56;;;;;;;4.10;3.03;;;14.80;62.90;;;;;;10364598;28;20462;-60
2023/12/04 01:14:56;;;;;;;3.78;2.75;;;14.80;62.90;;;;;;10364517;28;20022;-60
2023/12/04 01:19:57;;;;;;;5.32;3.10;;;14.80;62.90;;;;;;10363900;28;20042;-59
2023/12/04 01:24:58;;;;;;;4.40;2.70;;;14.80;63.00;;;;;;10364369;28;20034;-59
2023/12/04 01:29:58;;;;;;;3.95;2.67;;;14.80;62.90;;;;;;10376075;28;20477;-59
2023/12/04 01:34:59;;;;;;;3.25;2.28;;;14.80;62.90;;;;;;10370106;28;20429;-60
2023/12/04 01:40:00;;;;;;;4.05;2.58;;;14.70;62.90;;;;;;10370625;28;20040;-59
2023/12/04 01:45:01;;;;;;;4.35;3.28;;;14.70;62.90;;;;;;10370412;28;20033;-59
2023/12/04 01:50:02;;;;;;;3.28;2.03;;;14.70;62.90;;;;;;10368768;28;20200;-59
2023/12/04 01:55:04;;;;;;;3.35;2.58;;;14.70;62.90;;;;;;10370210;28;20040;-59
2023/12/04 02:00:11;;;;;;;3.60;2.75;;;14.70;62.90;;;;;;10369030;28;20033;-59
2023/12/04 02:05:14;;;;;;;3.80;2.47;;;14.70;63.00;;;;;;10368694;28;20034;-59
2023/12/04 02:10:14;;;;;;;3.63;2.40;;;14.70;62.90;;;;;;10368472;28;20041;-59
2023/12/04 02:15:15;;;;;;;5.18;2.78;;;14.60;62.90;;;;;;10369348;28;20028;-59
2023/12/04 02:20:17;;;;;;;2.80;2.13;;;14.60;62.90;;;;;;10367847;28;20482;-59
2023/12/04 02:25:19;;;;;;;4.60;2.85;;;14.60;63.00;;;;;;10369744;28;20030;-59
2023/12/04 02:30:23;;;;;;;4.53;2.88;;;14.70;63.00;;;;;;10377185;28;20033;-59
2023/12/04 02:35:28;;;;;;;4.00;2.42;;;14.60;63.00;;;;;;10367772;28;20033;-60
2023/12/04 02:40:29;;;;;;;3.45;2.58;;;14.60;62.90;;;;;;10366651;28;20551;-59
2023/12/04 02:45:30;;;;;;;4.32;2.47;;;14.70;63.00;;;;;;10365233;28;20104;-59
2023/12/04 02:50:31;;;;;;;4.35;2.60;;;14.70;62.80;;;;;;10367808;28;20034;-58
2023/12/04 02:55:31;;;;;;;3.33;2.13;;;14.70;62.60;;;;;;10367699;28;20050;-59
2023/12/04 03:00:32;;;;;;;3.38;2.30;;;14.80;62.60;;;;;;10367840;28;20116;-58
2023/12/04 03:05:33;;;;;;;4.28;2.70;;;14.70;62.60;;;;;;10366241;28;20103;-59
2023/12/04 03:10:34;;;;;;;3.58;2.35;;;14.70;62.70;;;;;;10365492;28;20214;-59
2023/12/04 03:15:34;;;;;;;4.10;2.80;;;14.70;62.80;;;;;;10367196;28;20026;-59
2023/12/04 03:20:35;;;;;;;4.10;3.00;;;14.60;62.70;;;;;;10365820;28;20091;-60
2023/12/04 03:25:36;;;;;;;4.93;2.78;;;14.60;62.70;;;;;;10365750;28;20056;-59
2023/12/04 03:30:37;;;;;;;3.70;2.20;;;14.60;62.80;;;;;;10373342;28;20033;-59
2023/12/04 03:35:37;;;;;;;3.38;2.10;;;14.60;62.90;;;;;;10381967;28;20045;-59
2023/12/04 03:40:38;;;;;;;4.68;3.08;;;14.60;62.70;;;;;;10364856;28;20063;-59
2023/12/04 03:45:39;;;;;;;3.88;2.63;;;14.70;62.60;;;;;;10366303;28;20037;-59
2023/12/04 03:50:39;;;;;;;3.78;2.70;;;14.70;62.50;;;;;;10364766;28;20044;-60
2023/12/04 03:55:40;;;;;;;3.78;2.28;;;14.70;62.40;;;;;;10365253;28;20179;-60
2023/12/04 04:00:43;;;;;;;3.47;2.33;;;14.70;62.50;;;;;;10363974;28;20401;-59
2023/12/04 04:05:43;;;;;;;3.65;2.25;;;14.70;62.60;;;;;;10365753;28;20034;-59
2023/12/04 04:10:45;;;;;;;3.13;1.95;;;14.60;62.60;;;;;;10364989;28;20100;-59
2023/12/04 04:15:46;;;;;;;4.03;2.17;;;14.60;62.70;;;;;;10380533;28;20030;-58
2023/12/04 04:20:46;;;;;;;3.05;2.25;;;14.60;62.70;;;;;;10363543;28;20033;-58
2023/12/04 04:25:47;;;;;;;3.10;2.20;;;14.60;62.60;;;;;;10363913;28;20410;-58
2023/12/04 04:30:48;;;;;;;4.05;2.50;;;14.70;62.30;;;;;;10362934;28;20038;-58
2023/12/04 04:35:48;;;;;;;4.63;2.35;;;14.80;63.20;;;;;;10363154;28;20066;-58
2023/12/04 04:40:49;;;;;;;5.25;2.60;;;14.80;63.00;;;;;;10362922;28;20068;-57
2023/12/04 04:45:50;;;;;;;6.25;2.90;;;14.80;63.00;;;;;;10362763;28;20034;-59
2023/12/04 04:50:51;;;;;;;6.10;2.20;;;14.80;63.10;;;;;;10361000;28;20125;-57
2023/12/04 04:55:52;;;;;;;3.40;2.08;;;14.80;63.50;;;;;;10360604;28;20053;-57
2023/12/04 05:00:52;;;;;;;8.07;2.58;;;14.80;63.40;;;;;;10361979;28;20041;-58
2023/12/04 05:05:53;;;;;;;4.90;2.30;;;14.70;63.20;;;;;;10367860;28;20034;-58
2023/12/04 05:10:54;;;;;;;4.32;2.67;;;14.70;63.20;;;;;;10369046;28;20642;-58
2023/12/04 05:15:54;;;;;;;6.13;3.03;;;14.60;63.20;;;;;;10368106;28;20036;-58
2023/12/04 05:20:55;;;;;;;4.30;2.65;;;14.60;63.20;;;;;;10365662;28;20385;-58
2023/12/04 05:25:56;;;;;;;4.47;2.65;;;14.60;63.00;;;;;;10333710;28;20049;-58
2023/12/04 05:30:56;;;;;;;5.15;2.60;;;14.60;62.90;;;;;;10359482;28;20026;-58
2023/12/04 05:35:57;;;;;;;6.63;3.03;;;14.70;62.80;;;;;;10343557;28;20095;-57
2023/12/04 05:40:58;;;;;;;4.85;2.20;;;14.70;62.80;;;;;;10368201;28;20157;-56
2023/12/04 05:45:59;;;;;;;4.47;3.10;;;14.80;63.60;;;;;;10368942;28;20409;-58
2023/12/04 05:50:59;;;;;;;3.90;2.25;;;14.80;63.60;;;;;;10368979;28;20034;-59
2023/12/04 05:56:00;;;;;;;9.00;2.75;;;14.80;63.60;;;;;;10355632;28;20038;-58
2023/12/04 06:01:01;;;;;;;4.68;2.75;;;14.80;63.50;;;;;;10339075;28;20285;-59
2023/12/04 06:06:01;;;;;;;5.07;2.65;;;14.80;63.90;;;;;;10359309;28;20750;-58
2023/12/04 06:11:02;;;;;;;5.43;2.35;;;14.80;63.40;;;;;;10346037;28;20073;-60
2023/12/04 06:16:04;;;;;;;5.63;1.88;;;14.80;63.40;;;;;;10343895;28;20162;-63
2023/12/04 06:21:05;;;;;;;4.47;2.28;;;14.70;63.10;;;;;;10329095;28;20080;-61
2023/12/04 06:26:07;;;;;;;7.03;2.38;;;14.70;63.10;;;;;;10340636;28;20088;-60
2023/12/04 06:31:09;;;;;;;6.18;2.53;;;14.60;63.10;;;;;;10330400;28;20026;-62
2023/12/04 06:36:13;;;;;;;4.28;2.13;;;14.70;62.90;;;;;;10367560;28;20022;-62
2023/12/04 06:41:14;;;;;;;3.67;2.08;;;14.60;62.80;;;;;;10367376;28;20068;-61
2023/12/04 06:46:16;;;;;;;3.67;2.00;;;14.70;62.80;;;;;;10326807;28;20231;-61
2023/12/04 06:51:17;;;;;;;4.47;1.90;;;14.70;62.60;;;;;;10352271;28;20507;-62
2023/12/04 06:56:18;;;;;;;4.65;2.85;;;14.70;62.60;;;;;;10326089;28;20048;-61
2023/12/04 07:01:18;;;;;;;4.28;2.15;;;14.70;62.50;;;;;;10326747;28;20040;-62
2023/12/04 07:06:19;;;;;;;4.15;1.95;;;14.70;62.50;;;;;;10325838;28;20371;-61
2023/12/04 07:11:20;;;;;;;4.00;2.35;;;14.70;62.40;;;;;;10325461;28;20041;-61
2023/12/04 07:16:20;;;;;;;4.03;2.55;;;14.70;62.20;;;;;;10339961;28;20037;-61
2023/12/04 07:21:21;;;;;;;3.25;2.65;;;14.70;62.20;;;;;;10308560;28;20410;-61
2023/12/04 07:26:22;;;;;;;3.30;1.90;;;14.70;62.20;;;;;;10325024;28;20412;-61
2023/12/04 07:31:23;;;;;;;6.07;2.25;;;14.80;62.00;;;;;;10345441;28;20092;-62
2023/12/04 07:36:26;;;;;;;3.03;1.95;;;14.80;62.10;;;;;;10323875;28;20081;-62
2023/12/04 07:41:27;;;;;;;4.28;2.00;;;14.80;62.10;;;;;;10321811;28;20474;-61
2023/12/04 07:46:28;;;;;;;3.38;1.90;;;14.80;62.10;;;;;;10307169;28;20029;-61
2023/12/04 07:51:28;;;;;;;3.08;2.08;;;14.80;62.00;;;;;;10309323;28;20033;-61
2023/12/04 07:56:30;;;;;;;3.83;2.35;;;14.70;61.90;;;;;;10325138;28;20453;-61
2023/12/04 08:01:30;;;;;;;3.45;1.90;;;14.80;62.00;;;;;;10326439;28;20387;-62
2023/12/04 08:06:31;;;;;;;3.65;2.05;;;14.80;61.90;;;;;;10325294;28;20023;-61
2023/12/04 08:11:32;;;;;;;3.50;2.05;;;14.80;61.90;;;;;;10325397;28;20076;-61
2023/12/04 08:16:32;;;;;;;3.40;1.80;;;14.70;61.80;;;;;;10349398;28;20493;-62
2023/12/04 08:21:33;;;;;;;3.83;2.25;;;14.80;61.90;;;;;;10365064;28;20402;-62
2023/12/04 08:26:34;;;;;;;2.67;1.80;;;14.80;61.80;;;;;;10349598;28;20065;-62
2023/12/04 08:31:35;;;;;;;3.35;1.95;;;14.80;61.80;;;;;;10342395;28;20035;-62
2023/12/04 08:36:35;;;;;;;5.20;1.83;;;14.80;61.70;;;;;;10324202;28;20035;-61
2023/12/04 08:41:36;;;;;;;2.60;1.42;;;14.80;62.40;;;;;;10335336;28;20088;-62
2023/12/04 08:46:37;;;;;;;2.20;1.50;;;14.80;61.70;;;;;;10332108;28;20038;-62
2023/12/04 08:51:38;;;;;;;2.80;1.67;;;14.80;61.60;;;;;;10331398;28;20104;-62
2023/12/04 08:56:38;;;;;;;4.50;2.40;;;14.80;61.60;;;;;;10331812;28;20050;-61
2023/12/04 09:01:39;;;;;;;2.58;1.85;;;14.80;61.50;;;;;;10333291;28;20440;-61
2023/12/04 09:06:40;;;;;;;3.05;1.55;;;14.80;61.50;;;;;;10332235;28;20022;-62
2023/12/04 09:11:42;;;;;;;3.75;2.90;;;14.80;61.50;;;;;;10330699;28;20031;-62
2023/12/04 09:16:43;;;;;;;1.75;1.30;;;14.80;61.40;;;;;;10345021;28;20115;-62
2023/12/04 09:21:44;;;;;;;2.10;1.38;;;14.80;61.40;;;;;;10331204;28;20666;-62
2023/12/04 09:26:45;;;;;;;3.13;1.63;;;14.80;61.40;;;;;;10331416;28;20042;-63
2023/12/04 09:31:45;;;;;;;3.00;1.88;;;14.80;61.40;;;;;;10354205;28;20026;-62
2023/12/04 09:36:48;;;;;;;2.22;1.80;;;14.80;61.40;;;;;;10331686;28;20030;-62
2023/12/04 09:41:50;;;;;;;2.70;1.63;;;14.80;61.40;;;;;;10334965;28;20122;-62
2023/12/04 09:46:52;;;;;;;3.78;1.95;;;14.80;61.40;;;;;;10330030;28;20034;-62
2023/12/04 09:51:52;;;;;;;2.63;1.65;;;14.80;61.40;;;;;;10330246;28;20541;-61
2023/12/04 09:56:53;;;;;;;3.70;1.60;;;14.80;61.40;;;;;;10329842;28;20046;-61
2023/12/04 10:01:54;;;;;;;2.53;1.52;;;14.80;61.40;;;;;;10329098;28;20030;-61
2023/12/04 10:06:55;;;;;;;2.25;1.40;;;14.80;61.40;;;;;;10311974;28;20030;-61
2023/12/04 10:11:59;;;;;;;1.98;1.30;;;14.80;61.40;;;;;;10329790;28;20034;-62
2023/12/04 10:17:16;;;;;;;2.83;1.73;;;14.80;61.40;;;;;;10347370;28;20065;-61
2023/12/04 10:22:16;;;;;;;2.38;1.38;;;14.80;61.30;;;;;;10352927;28;20030;-61
2023/12/04 10:27:17;;;;;;;3.00;2.20;;;14.80;61.40;;;;;;10385966;28;20030;-62
2023/12/04 10:32:21;;;;;;;5.32;2.17;;;14.80;61.30;;;;;;10340740;28;20030;-60
2023/12/04 10:37:24;;;;;;;2.63;1.50;;;14.90;61.40;;;;;;10327615;28;20049;-61
2023/12/04 10:42:32;;;;;;;2.70;1.60;;;14.80;61.30;;;;;;10332817;28;20041;-61
2023/12/04 10:47:35;;;;;;;3.15;1.98;;;14.80;61.40;;;;;;10327015;28;20405;-61
2023/12/04 10:52:40;;;;;;;2.58;1.55;;;14.80;61.40;;;;;;10328265;28;20334;-61
2023/12/04 10:57:43;;;;;;;2.22;1.45;;;14.70;61.60;;;;;;10326720;28;20092;-62
2023/12/04 11:02:48;;;;;;;2.53;1.73;;;14.80;61.70;;;;;;10310636;28;20034;-61
2023/12/04 11:07:53;;;;;;;2.60;1.63;;;14.80;61.60;;;;;;10328725;28;20030;-62
2023/12/04 11:13:12;;;;;;;2.33;1.40;;;14.70;61.50;;;;;;10326806;28;20583;-61
2023/12/04 11:18:15;;;;;;;3.08;1.75;;;14.80;61.60;;;;;;10339446;28;20046;-62
2023/12/04 11:23:16;;;;;;;2.78;1.70;;;14.80;61.60;;;;;;10326356;28;20498;-62
2023/12/04 11:28:18;;;;;;;2.40;1.48;;;14.80;61.50;;;;;;10326042;28;20042;-62
2023/12/04 11:33:19;;;;;;;2.17;1.63;;;14.70;61.60;;;;;;10348440;28;20050;-61
2023/12/04 11:38:20;;;;;;;3.50;1.58;;;14.80;61.60;;;;;;10325520;28;20037;-61
2023/12/04 11:43:29;;;;;;;2.58;1.73;;;14.70;61.50;;;;;;10329708;28;20179;-62
2023/12/04 11:48:31;;;;;;;2.87;1.97;;;14.70;61.50;;;;;;10326671;28;20030;-62
2023/12/04 11:53:32;;;;;;;2.33;1.55;;;14.70;61.60;;;;;;10324254;28;20022;-62
2023/12/04 11:58:41;;;;;;;2.88;1.90;;;14.80;61.70;;;;;;10308033;28;20194;-62
2023/12/04 12:03:42;;;;;;;2.23;1.63;;;14.80;61.60;;;;;;10324602;28;20033;-62
2023/12/04 12:08:44;;;;;;;3.13;1.88;;;14.80;61.60;;;;;;10325369;28;20049;-61
2023/12/04 12:13:45;;;;;;;2.47;1.58;;;14.80;61.50;;;;;;10309550;28;20030;-62
2023/12/04 12:18:47;;;;;;;2.90;2.08;;;14.80;61.50;;;;;;10349246;28;20033;-62
2023/12/04 12:23:48;;;;;;;3.95;2.08;;;14.80;61.40;;;;;;10364534;28;20037;-61
2023/12/04 12:28:49;;;;;;;2.33;1.58;;;14.80;61.50;;;;;;10317980;28;20516;-62
2023/12/04 12:33:51;;;;;;;2.63;1.65;;;14.70;61.50;;;;;;10352098;28;20045;-62
2023/12/04 12:38:53;;;;;;;3.15;2.08;;;14.70;61.50;;;;;;10364022;28;20034;-62
2023/12/04 12:43:54;;;;;;;2.60;1.70;;;14.70;61.60;;;;;;10342970;28;20073;-61
2023/12/04 12:48:54;;;;;;;2.33;1.55;;;14.70;62.10;;;;;;10324327;28;20162;-61
2023/12/04 12:53:57;;;;;;;2.60;1.52;;;14.70;61.60;;;;;;10324605;28;20029;-61
2023/12/04 12:58:59;;;;;;;2.28;1.40;;;14.70;61.40;;;;;;10322332;28;20134;-61
2023/12/04 13:04:00;;;;;;;2.30;1.58;;;14.80;61.40;;;;;;10340503;28;20038;-62
2023/12/04 13:09:01;;;;;;;2.90;1.92;;;14.80;61.40;;;;;;10324936;28;20031;-61
2023/12/04 13:14:02;;;;;;;2.53;1.52;;;14.80;61.40;;;;;;10329349;28;20022;-61
2023/12/04 13:19:02;;;;;;;2.83;1.58;;;14.80;61.40;;;;;;10333076;28;20054;-62
2023/12/04 13:24:07;;;;;;;2.63;1.77;;;14.70;61.40;;;;;;10326832;28;20564;-61
2023/12/04 13:29:07;;;;;;;3.15;1.98;;;14.70;61.30;;;;;;10334004;28;20080;-61
2023/12/04 13:34:08;;;;;;;3.20;2.15;;;14.70;61.40;;;;;;10370504;28;20466;-61
2023/12/04 13:39:26;;;;;;;3.05;1.77;;;14.70;61.40;;;;;;10371459;28;20109;-63
2023/12/04 13:44:26;;;;;;;2.75;1.65;;;14.80;61.40;;;;;;10343753;28;20033;-61
2023/12/04 13:49:27;;;;;;;2.17;1.52;;;14.80;61.20;;;;;;10331472;28;20037;-62
2023/12/04 13:54:43;;;;;;;2.90;1.48;;;14.80;61.20;;;;;;10330980;28;20030;-61
2023/12/04 13:59:44;;;;;;;2.25;1.63;;;14.80;61.20;;;;;;10349729;28;20092;-61
2023/12/04 14:04:44;;;;;;;2.58;1.98;;;14.80;61.20;;;;;;10370861;28;20032;-62
2023/12/04 14:09:46;;;;;;;2.58;1.67;;;14.80;61.30;;;;;;10369864;28;20048;-61
2023/12/04 14:14:48;;;;;;;3.40;2.53;;;14.80;61.30;;;;;;10370086;28;20121;-62
2023/12/04 14:19:48;;;;;;;2.03;1.58;;;14.80;61.40;;;;;;10335432;28;20030;-61
2023/12/04 14:24:49;;;;;;;2.45;1.60;;;14.80;61.40;;;;;;10330981;28;20026;-61
2023/12/04 14:29:50;;;;;;;3.03;1.90;;;14.80;61.40;;;;;;10337791;28;20034;-62
2023/12/04 14:34:50;;;;;;;3.58;2.47;;;14.80;61.30;;;;;;10370951;28;20026;-61
2023/12/04 14:39:51;;;;;;;3.03;1.90;;;14.80;61.30;;;;;;10354827;28;20037;-63
2023/12/04 14:44:52;;;;;;;4.60;2.05;;;14.90;61.20;;;;;;10333049;28;20038;-61
2023/12/04 14:49:55;;;;;;;2.97;2.00;;;14.80;61.10;;;;;;10327876;28;20062;-61
2023/12/04 15:06:08;;;;;;;2.60;1.70;;;14.80;61.20;;;;;;10328194;28;20034;-61
2023/12/04 15:22:04;;;;;;;2.65;1.38;;;14.80;61.10;;;;;;10243259;29;20102;-61
2023/12/04 15:27:06;;;;;;;4.05;2.40;;;14.80;61.80;;;;;;10226696;29;20229;-61
2023/12/04 15:32:07;;;;;;;2.65;1.75;;;14.80;61.10;;;;;;10205934;29;20040;-61
2023/12/04 15:37:08;;;;;;;2.83;1.88;;;14.80;61.10;;;;;;10225763;28;20043;-61
2023/12/04 15:42:09;;;;;;;3.92;1.70;;;14.80;61.10;;;;;;10225286;29;20111;-60
2023/12/04 15:47:09;;;;;;;4.20;1.88;;;14.80;61.10;;;;;;10239480;28;20047;-61
2023/12/04 15:52:10;;;;;;;3.10;1.88;;;14.80;61.20;;;;;;10296755;28;20495;-61
2023/12/04 15:57:11;;;;;;;2.40;1.80;;;14.80;61.20;;;;;;10343797;28;20061;-61
2023/12/04 16:02:12;;;;;;;3.58;2.10;;;14.80;61.20;;;;;;10341966;28;20044;-60
2023/12/04 16:07:13;;;;;;;2.88;1.90;;;14.80;61.20;;;;;;10317006;28;20037;-61
2023/12/04 16:12:13;;;;;;;2.70;1.67;;;14.80;61.20;;;;;;10342195;28;20039;-61
2023/12/04 16:17:14;;;;;;;3.00;1.42;;;14.80;61.20;;;;;;10355239;28;20040;-61
2023/12/04 16:22:15;;;;;;;2.70;1.98;;;14.80;61.30;;;;;;10366710;28;20052;-60
2023/12/04 16:27:16;;;;;;;2.83;1.52;;;14.80;61.20;;;;;;10367850;28;20026;-62
2023/12/04 16:32:17;;;;;;;2.38;1.55;;;14.80;61.10;;;;;;10337542;28;20026;-59
2023/12/04 16:37:18;;;;;;;3.25;2.20;;;14.80;61.30;;;;;;10333531;28;20027;-61
2023/12/04 16:42:19;;;;;;;3.05;2.25;;;14.90;61.10;;;;;;10368635;28;20045;-61
2023/12/04 16:47:19;;;;;;;6.03;2.20;;;14.90;61.00;;;;;;10325695;28;20029;-61
2023/12/04 16:52:20;;;;;;;3.60;1.92;;;14.90;60.70;;;;;;10331870;28;20033;-61
2023/12/04 16:57:21;;;;;;;3.33;2.50;;;14.80;60.70;;;;;;10363319;28;20042;-60
2023/12/04 17:02:22;;;;;;;4.43;2.88;;;15.00;60.40;;;;;;10370681;28;20033;-62
2023/12/04 17:07:22;;;;;;;3.45;2.78;;;15.00;60.70;;;;;;10367004;28;20472;-61
2023/12/04 17:12:23;;;;;;;4.63;2.75;;;15.10;61.00;;;;;;10368381;28;20110;-62
2023/12/04 17:17:24;;;;;;;3.38;2.53;;;15.10;60.90;;;;;;10367413;28;20034;-62
2023/12/04 17:22:26;;;;;;;4.93;2.30;;;15.10;61.10;;;;;;10369244;28;20366;-61
2023/12/04 17:27:27;;;;;;;3.65;2.25;;;15.10;61.30;;;;;;10368918;28;20034;-60
2023/12/04 17:32:27;;;;;;;3.33;2.40;;;15.00;61.30;;;;;;10366282;28;20042;-60
2023/12/04 17:37:28;;;;;;;2.45;1.60;;;14.90;61.40;;;;;;10369038;28;20030;-60
2023/12/04 17:42:29;;;;;;;3.63;2.63;;;14.90;61.50;;;;;;10365321;28;20021;-60
2023/12/04 17:47:29;;;;;;;3.70;2.30;;;14.80;61.60;;;;;;10350707;28;20029;-60
2023/12/04 17:52:30;;;;;;;4.22;2.50;;;14.80;61.60;;;;;;10333021;28;20034;-61
2023/12/04 17:57:31;;;;;;;3.53;1.90;;;14.90;61.60;;;;;;10360789;28;20072;-61
2023/12/04 18:02:32;;;;;;;2.75;2.13;;;14.90;61.50;;;;;;10370218;28;20112;-60
2023/12/04 18:07:32;;;;;;;4.45;2.47;;;14.80;61.50;;;;;;10378727;28;20032;-61
2023/12/04 18:12:33;;;;;;;4.45;2.83;;;14.80;61.50;;;;;;10375208;28;20053;-61
2023/12/04 18:17:41;;;;;;;5.78;2.20;;;14.80;61.70;;;;;;10369625;28;20424;-62
2023/12/04 18:22:43;;;;;;;3.55;2.58;;;14.80;61.80;;;;;;10366335;28;20108;-60
2023/12/04 18:27:44;;;;;;;3.45;1.70;;;14.80;61.80;;;;;;10367610;28;20129;-61
2023/12/04 18:32:46;;;;;;;5.18;2.53;;;14.80;62.10;;;;;;10366419;28;20042;-61
2023/12/04 18:38:01;;;;;;;5.15;2.28;;;14.80;61.80;;;;;;10371293;28;20104;-62
2023/12/04 18:43:03;;;;;;;5.85;2.20;;;14.80;61.70;;;;;;10367508;28;20096;-62
2023/12/04 18:48:05;;;;;;;5.53;2.35;;;14.90;61.70;;;;;;10362797;28;20034;-59
2023/12/04 18:53:06;;;;;;;4.55;2.10;;;15.00;62.30;;;;;;10364244;28;20061;-59
2023/12/04 18:58:13;;;;;;;4.60;2.40;;;15.00;62.20;;;;;;10364549;28;20782;-61
2023/12/04 19:03:14;;;;;;;5.90;2.55;;;15.00;62.20;;;;;;10365642;28;20088;-60
2023/12/04 19:08:16;;;;;;;6.00;2.47;;;15.00;62.40;;;;;;10365435;28;20517;-61
2023/12/04 19:13:16;;;;;;;4.68;2.10;;;15.00;62.40;;;;;;10366185;28;20021;-62
2023/12/04 19:18:17;;;;;;;9.23;4.28;;;15.00;62.50;;;;;;10343825;28;20041;-59
2023/12/04 19:23:18;;;;;;;3.58;2.22;;;15.00;62.70;;;;;;10356470;28;20025;-60
2023/12/04 19:28:18;;;;;;;4.22;2.22;;;15.00;62.90;;;;;;10367835;28;20022;-61
2023/12/04 19:33:20;;;;;;;14.20;3.45;;;15.00;62.90;;;;;;10334285;28;20034;-59
2023/12/04 19:38:21;;;;;;;8.43;2.60;;;14.80;62.80;;;;;;10329053;28;20077;-62
2023/12/04 19:43:22;;;;;;;5.25;2.60;;;14.80;62.90;;;;;;10341654;28;20033;-62
2023/12/04 19:48:23;;;;;;;3.47;2.42;;;14.70;62.90;;;;;;10377396;28;20026;-62
2023/12/04 19:53:23;;;;;;;3.95;2.33;;;14.70;63.10;;;;;;10364095;28;20404;-60
2023/12/04 19:58:24;;;;;;;3.92;2.00;;;14.60;63.10;;;;;;10363758;28;20042;-61
2023/12/04 20:03:25;;;;;;;2.80;2.03;;;14.60;63.00;;;;;;10369022;28;20542;-60
2023/12/04 20:08:25;;;;;;;3.85;2.50;;;14.60;63.00;;;;;;10367782;28;20068;-61
2023/12/04 20:13:27;;;;;;;5.57;2.72;;;14.60;63.00;;;;;;10367729;28;20072;-61
2023/12/04 20:18:28;;;;;;;5.05;2.67;;;14.50;63.00;;;;;;10339792;28;20030;-61
2023/12/04 20:23:28;;;;;;;4.95;2.95;;;14.50;63.20;;;;;;10325817;28;20035;-62
2023/12/04 20:28:29;;;;;;;5.60;2.67;;;14.50;63.20;;;;;;10327173;28;20022;-60
2023/12/04 20:33:31;;;;;;;3.17;2.47;;;14.40;63.30;;;;;;10347036;28;20030;-61
2023/12/04 20:38:31;;;;;;;3.58;2.38;;;14.40;63.50;;;;;;10327178;28;20057;-62
2023/12/04 20:43:33;;;;;;;4.20;2.42;;;14.40;63.50;;;;;;10328753;28;20030;-61
2023/12/04 20:48:34;;;;;;;3.22;2.08;;;14.30;63.50;;;;;;10325552;28;20458;-61
2023/12/04 20:53:35;;;;;;;3.88;2.30;;;14.30;63.60;;;;;;10325440;28;20081;-61
2023/12/04 20:58:35;;;;;;;3.20;2.10;;;14.20;63.70;;;;;;10325544;28;20077;-60
2023/12/04 21:03:36;;;;;;;9.13;2.92;;;14.20;63.70;;;;;;10324395;28;20038;-61
2023/12/04 21:08:37;;;;;;;3.15;2.50;;;14.20;63.70;;;;;;10322573;28;20088;-61
2023/12/04 21:13:37;;;;;;;7.28;2.58;;;14.10;63.70;;;;;;10323147;28;20072;-62
2023/12/04 21:18:38;;;;;;;3.10;2.10;;;14.10;63.80;;;;;;10318978;28;20038;-61
2023/12/04 21:23:39;;;;;;;3.13;2.40;;;14.10;63.80;;;;;;10338378;28;20042;-61
2023/12/04 21:28:40;;;;;;;3.92;2.30;;;14.10;63.80;;;;;;10334068;28;20039;-61
2023/12/04 21:33:41;;;;;;;3.17;2.30;;;14.10;63.80;;;;;;10355651;28;20041;-60
2023/12/04 21:38:42;;;;;;;3.72;2.65;;;14.10;63.90;;;;;;10362826;28;20046;-61
2023/12/04 21:43:43;;;;;;;3.10;2.13;;;14.00;63.80;;;;;;10341608;28;20034;-60
2023/12/04 21:48:44;;;;;;;3.90;2.60;;;14.00;63.90;;;;;;10329025;28;20073;-61
2023/12/04 21:53:44;;;;;;;2.83;2.05;;;14.00;64.00;;;;;;10330207;28;20109;-60
2023/12/04 21:58:45;;;;;;;2.42;1.80;;;14.00;63.90;;;;;;10329147;28;20050;-60
2023/12/04 22:03:46;;;;;;;3.47;2.38;;;14.00;64.00;;;;;;10328293;28;20034;-60
2023/12/04 22:08:47;;;;;;;3.40;2.60;;;13.90;63.90;;;;;;10328645;28;20061;-60
2023/12/04 22:13:47;;;;;;;3.72;2.42;;;13.90;63.90;;;;;;10332423;28;20018;-61
2023/12/04 22:18:49;;;;;;;2.65;2.10;;;13.90;63.90;;;;;;10342011;28;20026;-60
2023/12/04 22:23:49;;;;;;;3.53;2.35;;;13.90;63.90;;;;;;10329180;28;20046;-60
2023/12/04 22:28:50;;;;;;;4.13;2.50;;;13.90;64.00;;;;;;10330703;28;20386;-60
2023/12/04 22:33:51;;;;;;;4.00;2.15;;;13.90;64.00;;;;;;10371562;28;20057;-61
2023/12/04 22:38:51;;;;;;;3.08;2.33;;;13.90;64.00;;;;;;10370425;28;20200;-60
2023/12/04 22:43:52;;;;;;;2.47;2.03;;;13.80;63.90;;;;;;10325104;28;20093;-59
2023/12/04 22:48:53;;;;;;;3.80;2.55;;;13.80;64.00;;;;;;10329323;28;20031;-60
2023/12/04 22:53:53;;;;;;;2.65;2.10;;;13.80;64.10;;;;;;10345529;28;20512;-60
2023/12/04 22:58:54;;;;;;;3.03;2.35;;;13.80;64.00;;;;;;10329449;28;20050;-61
2023/12/04 23:03:55;;;;;;;2.65;2.00;;;13.80;64.00;;;;;;10329794;28;20027;-60
2023/12/04 23:08:56;;;;;;;2.97;2.22;;;13.80;64.10;;;;;;10328631;28;20030;-60
2023/12/04 23:13:57;;;;;;;2.50;2.20;;;13.80;64.00;;;;;;10331576;28;20092;-60
2023/12/04 23:18:58;;;;;;;3.55;2.30;;;13.70;64.00;;;;;;10339288;28;20026;-60
2023/12/04 23:23:59;;;;;;;2.95;2.17;;;13.70;64.00;;;;;;10328989;28;20080;-60
2023/12/04 23:29:00;;;;;;;3.22;1.92;;;13.70;64.00;;;;;;10329993;28;20493;-60
2023/12/04 23:34:01;;;;;;;3.13;2.17;;;13.70;64.10;;;;;;10347782;28;20022;-60
2023/12/04 23:39:02;;;;;;;3.40;2.20;;;13.70;64.00;;;;;;10327764;28;20042;-60
2023/12/04 23:44:03;;;;;;;3.70;2.55;;;13.70;64.00;;;;;;10329904;28;20074;-59
2023/12/04 23:49:03;;;;;;;4.22;2.70;;;13.70;64.10;;;;;;10327260;28;20169;-61
2023/12/04 23:54:05;;;;;;;2.92;2.05;;;13.70;64.10;;;;;;10328121;28;20050;-60
2023/12/04 23:59:06;;;;;;;3.28;2.00;;;13.70;64.10;;;;;;10326866;28;20505;-61
